Time;durP1;ratioP1;P1;durP2;ratioP2;P2;SDS_P1;SDS_P2;PMS_P1;PMS_P2;Temp;Humidity;BMP_temperature;BMP_pressure;BME280_temperature;BME280_humidity;BME280_pressure;Samples;Min_cycle;Max_cycle;Signal;HPM_P1;HPM_P2
2022/04/13 00:01:54;;;;;;;6.80;3.47;;;;;;;;;;5036108;28;20057;-66
2022/04/13 00:04:19;;;;;;;8.25;4.60;;;;;;;;;;5034836;28;20032;-66
2022/04/13 00:06:44;;;;;;;6.95;3.80;;;;;;;;;;5048229;28;20025;-66
2022/04/13 00:09:12;;;;;;;6.10;3.70;;;;;;;;;;5042798;28;20039;-66
2022/04/13 00:11:37;;;;;;;5.95;3.67;;;;;;;;;;5054667;28;20033;-65
2022/04/13 00:14:03;;;;;;;8.18;4.00;;;;;;;;;;5051303;28;20024;-65
2022/04/13 00:16:28;;;;;;;7.20;4.55;;;;;;;;;;5040119;28;20027;-67
2022/04/13 00:18:53;;;;;;;8.07;4.60;;;;;;;;;;5050898;28;20462;-67
2022/04/13 00:21:19;;;;;;;7.18;4.55;;;;;;;;;;5049693;28;20484;-66
2022/04/13 00:23:44;;;;;;;6.00;4.00;;;;;;;;;;5051128;28;20025;-67
2022/04/13 00:26:09;;;;;;;5.82;4.50;;;;;;;;;;5063906;28;20171;-67
2022/04/13 00:28:34;;;;;;;7.20;3.90;;;;;;;;;;5046600;28;20032;-67
2022/04/13 00:31:00;;;;;;;6.68;4.18;;;;;;;;;;5049269;28;20021;-66
2022/04/13 00:33:25;;;;;;;5.80;3.97;;;;;;;;;;5050412;28;20017;-66
2022/04/13 00:35:50;;;;;;;5.78;3.45;;;;;;;;;;5050858;28;20532;-66
2022/04/13 00:38:16;;;;;;;5.43;3.47;;;;;;;;;;5050225;28;20076;-66
2022/04/13 00:40:42;;;;;;;6.03;3.70;;;;;;;;;;5050491;28;20082;-66
2022/04/13 00:43:07;;;;;;;5.78;3.92;;;;;;;;;;5061237;28;20012;-66
2022/04/13 00:45:33;;;;;;;6.30;3.60;;;;;;;;;;5059052;28;20030;-65
2022/04/13 00:47:59;;;;;;;7.30;3.95;;;;;;;;;;5071516;28;20474;-66
2022/04/13 00:50:24;;;;;;;8.80;3.80;;;;;;;;;;5062422;28;20074;-67
2022/04/13 00:52:50;;;;;;;8.23;4.20;;;;;;;;;;5050729;28;20036;-67
2022/04/13 00:55:16;;;;;;;8.38;4.25;;;;;;;;;;5050831;28;20048;-66
2022/04/13 00:57:42;;;;;;;7.05;4.10;;;;;;;;;;5045853;28;22079;-67
2022/04/13 01:00:09;;;;;;;10.05;4.35;;;;;;;;;;5036618;28;20037;-66
2022/04/13 01:02:36;;;;;;;6.20;3.75;;;;;;;;;;5045285;28;20037;-66
2022/04/13 01:05:02;;;;;;;6.85;3.80;;;;;;;;;;5049859;28;20460;-66
2022/04/13 01:07:28;;;;;;;6.85;3.95;;;;;;;;;;5042197;28;20079;-66
2022/04/13 01:09:53;;;;;;;7.53;4.00;;;;;;;;;;5033870;28;20033;-66
2022/04/13 01:12:19;;;;;;;6.95;4.32;;;;;;;;;;5061326;28;20555;-66
2022/04/13 01:14:44;;;;;;;7.32;3.95;;;;;;;;;;5054165;28;20472;-66
2022/04/13 01:17:09;;;;;;;7.18;4.03;;;;;;;;;;5053928;28;20388;-66
2022/04/13 01:19:34;;;;;;;6.88;3.97;;;;;;;;;;5054123;28;20484;-66
2022/04/13 01:22:10;;;;;;;6.85;4.10;;;;;;;;;;5052624;28;20063;-66
2022/04/13 01:24:35;;;;;;;8.80;4.60;;;;;;;;;;5054314;28;20051;-66
2022/04/13 01:27:00;;;;;;;7.25;3.90;;;;;;;;;;5042414;28;20268;-66
2022/04/13 01:29:25;;;;;;;7.60;3.92;;;;;;;;;;5040060;28;20021;-66
2022/04/13 01:31:53;;;;;;;7.15;4.18;;;;;;;;;;5062753;28;20428;-66
2022/04/13 01:34:19;;;;;;;7.53;4.07;;;;;;;;;;5054338;28;20021;-67
2022/04/13 01:36:44;;;;;;;7.45;4.25;;;;;;;;;;5045329;28;20035;-67
2022/04/13 01:39:09;;;;;;;7.00;4.00;;;;;;;;;;5054024;28;20436;-66
2022/04/13 01:41:34;;;;;;;8.70;4.32;;;;;;;;;;5054225;28;20013;-66
2022/04/13 01:44:00;;;;;;;6.55;4.05;;;;;;;;;;5054516;28;20025;-66
2022/04/13 01:46:25;;;;;;;6.00;3.58;;;;;;;;;;5053551;28;20066;-66
2022/04/13 01:48:50;;;;;;;5.88;3.92;;;;;;;;;;5060852;28;20279;-66
2022/04/13 01:51:17;;;;;;;6.90;4.13;;;;;;;;;;5052106;28;20025;-66
2022/04/13 01:53:42;;;;;;;7.63;4.07;;;;;;;;;;5055237;28;20102;-65
2022/04/13 01:56:07;;;;;;;6.90;4.40;;;;;;;;;;5054004;28;20060;-67
2022/04/13 01:58:33;;;;;;;6.40;4.25;;;;;;;;;;5043741;28;20071;-67
2022/04/13 02:00:58;;;;;;;6.43;4.30;;;;;;;;;;5033773;28;20025;-67
2022/04/13 02:03:24;;;;;;;6.38;3.65;;;;;;;;;;5052471;28;20045;-67
2022/04/13 02:05:52;;;;;;;6.90;4.43;;;;;;;;;;5054193;28;20037;-67
2022/04/13 02:08:17;;;;;;;9.43;5.20;;;;;;;;;;5054289;28;20032;-65
2022/04/13 02:10:43;;;;;;;7.95;4.35;;;;;;;;;;5053505;28;20025;-66
2022/04/13 02:13:08;;;;;;;7.30;4.63;;;;;;;;;;5070774;28;20032;-66
2022/04/13 02:15:33;;;;;;;8.90;4.63;;;;;;;;;;5062174;28;20036;-66
2022/04/13 02:17:58;;;;;;;8.07;4.30;;;;;;;;;;5064372;28;20086;-66
2022/04/13 02:20:24;;;;;;;9.18;4.97;;;;;;;;;;5052009;28;20029;-66
2022/04/13 02:22:49;;;;;;;7.68;4.32;;;;;;;;;;5065642;28;20485;-66
2022/04/13 02:25:14;;;;;;;7.78;4.47;;;;;;;;;;5069618;28;20029;-66
2022/04/13 02:27:40;;;;;;;6.78;3.95;;;;;;;;;;5050976;28;20040;-65
2022/04/13 02:30:05;;;;;;;6.35;4.00;;;;;;;;;;5046597;28;20501;-65
2022/04/13 02:32:31;;;;;;;7.03;4.35;;;;;;;;;;5034643;28;20029;-66
2022/04/13 02:34:56;;;;;;;6.30;4.32;;;;;;;;;;5032977;28;20090;-66
2022/04/13 02:37:21;;;;;;;7.55;4.68;;;;;;;;;;5053407;28;20105;-66
2022/04/13 02:39:46;;;;;;;7.13;4.53;;;;;;;;;;5050599;28;20036;-66
2022/04/13 02:42:14;;;;;;;8.07;4.85;;;;;;;;;;5052866;28;20033;-66
2022/04/13 02:44:40;;;;;;;6.25;4.30;;;;;;;;;;5050856;28;20025;-66
2022/04/13 02:47:05;;;;;;;6.20;4.35;;;;;;;;;;5063148;28;20367;-66
2022/04/13 02:49:31;;;;;;;5.72;3.67;;;;;;;;;;5050720;28;20029;-66
2022/04/13 02:51:56;;;;;;;6.15;3.88;;;;;;;;;;5052216;28;20035;-66
2022/04/13 02:54:21;;;;;;;7.78;4.45;;;;;;;;;;5051263;28;20031;-66
2022/04/13 02:56:46;;;;;;;6.82;3.97;;;;;;;;;;5051269;28;20489;-66
2022/04/13 02:59:11;;;;;;;5.95;4.03;;;;;;;;;;5044418;28;20033;-66
2022/04/13 03:01:37;;;;;;;5.45;3.65;;;;;;;;;;5050409;28;20040;-66
2022/04/13 03:04:02;;;;;;;5.47;3.15;;;;;;;;;;5051816;28;20116;-66
2022/04/13 03:06:27;;;;;;;6.10;4.10;;;;;;;;;;5050920;28;20070;-66
2022/04/13 03:08:52;;;;;;;8.27;4.28;;;;;;;;;;5052445;28;20029;-66
2022/04/13 03:11:17;;;;;;;8.15;4.50;;;;;;;;;;5052281;28;20040;-66
2022/04/13 03:13:43;;;;;;;6.22;3.97;;;;;;;;;;5051748;28;20107;-65
2022/04/13 03:16:08;;;;;;;5.85;3.80;;;;;;;;;;5044270;28;20032;-67
2022/04/13 03:18:33;;;;;;;6.03;3.67;;;;;;;;;;5051130;28;20494;-67
2022/04/13 03:20:59;;;;;;;6.78;4.07;;;;;;;;;;5051254;28;20538;-67
2022/04/13 03:23:24;;;;;;;5.97;3.47;;;;;;;;;;5051546;28;20111;-67
2022/04/13 03:25:49;;;;;;;7.95;4.38;;;;;;;;;;5054775;28;20021;-67
2022/04/13 03:28:14;;;;;;;7.05;3.95;;;;;;;;;;5057253;28;20074;-66
2022/04/13 03:30:39;;;;;;;6.35;3.50;;;;;;;;;;5040105;28;20028;-67
2022/04/13 03:33:05;;;;;;;7.32;3.75;;;;;;;;;;5058377;28;20107;-66
2022/04/13 03:35:30;;;;;;;6.05;3.80;;;;;;;;;;5065125;28;20051;-67
2022/04/13 03:37:55;;;;;;;5.70;3.72;;;;;;;;;;5057483;28;20020;-66
2022/04/13 03:40:23;;;;;;;6.10;3.75;;;;;;;;;;5065096;28;20491;-66
2022/04/13 03:42:48;;;;;;;5.15;3.58;;;;;;;;;;5051642;28;20028;-66
2022/04/13 03:45:13;;;;;;;7.22;3.80;;;;;;;;;;5051874;28;20025;-66
2022/04/13 03:47:39;;;;;;;6.63;3.90;;;;;;;;;;5050609;28;20025;-66
2022/04/13 03:50:05;;;;;;;6.43;3.85;;;;;;;;;;5051009;28;20033;-66
2022/04/13 03:52:31;;;;;;;8.50;3.92;;;;;;;;;;5051792;28;20071;-66
2022/04/13 03:54:56;;;;;;;9.20;4.40;;;;;;;;;;5050382;28;20064;-66
2022/04/13 03:57:21;;;;;;;6.60;3.80;;;;;;;;;;5065212;28;20033;-66
2022/04/13 03:59:47;;;;;;;5.25;3.90;;;;;;;;;;5053114;28;20029;-66
2022/04/13 04:02:14;;;;;;;6.25;4.15;;;;;;;;;;5046007;28;20100;-67
2022/04/13 04:04:39;;;;;;;7.75;4.07;;;;;;;;;;5048243;28;20047;-67
2022/04/13 04:07:04;;;;;;;7.90;4.30;;;;;;;;;;5050315;28;20544;-67
2022/04/13 04:09:29;;;;;;;8.48;4.20;;;;;;;;;;5050402;28;20477;-67
2022/04/13 04:11:54;;;;;;;8.05;4.40;;;;;;;;;;5049618;28;20490;-67
2022/04/13 04:14:20;;;;;;;9.77;4.45;;;;;;;;;;5050304;28;20025;-67
2022/04/13 04:16:45;;;;;;;10.75;4.13;;;;;;;;;;5047679;28;20413;-66
2022/04/13 04:19:10;;;;;;;7.57;4.90;;;;;;;;;;5050581;28;20075;-66
2022/04/13 04:21:35;;;;;;;7.45;4.75;;;;;;;;;;5049272;28;20425;-65
2022/04/13 04:24:00;;;;;;;6.40;4.20;;;;;;;;;;5051210;28;20025;-66
2022/04/13 04:26:26;;;;;;;6.93;4.18;;;;;;;;;;5051031;28;20115;-65
2022/04/13 04:28:51;;;;;;;6.95;4.38;;;;;;;;;;5036556;28;20387;-66
2022/04/13 04:31:49;;;;;;;8.70;4.30;;;;;;;;;;5033642;28;20091;-65
2022/04/13 04:34:04;;;;;;;7.45;4.13;;;;;;;;;;5040351;28;20028;-66
2022/04/13 04:36:30;;;;;;;6.50;3.75;;;;;;;;;;5053120;28;20017;-66
2022/04/13 04:38:55;;;;;;;7.85;4.07;;;;;;;;;;5031499;28;20025;-66
2022/04/13 04:41:20;;;;;;;6.15;3.88;;;;;;;;;;5055987;28;20119;-67
2022/04/13 04:43:45;;;;;;;7.07;4.57;;;;;;;;;;5049091;28;20108;-66
2022/04/13 04:46:12;;;;;;;5.20;3.38;;;;;;;;;;5040825;28;20026;-66
2022/04/13 04:48:40;;;;;;;8.98;4.07;;;;;;;;;;5055170;28;20060;-67
2022/04/13 04:51:05;;;;;;;8.02;4.18;;;;;;;;;;5044187;28;20028;-67
2022/04/13 04:53:30;;;;;;;6.78;3.55;;;;;;;;;;5053511;28;20029;-67
2022/04/13 04:55:56;;;;;;;5.68;4.20;;;;;;;;;;5053906;28;20057;-67
2022/04/13 04:58:21;;;;;;;9.15;4.22;;;;;;;;;;5035742;28;20047;-67
2022/04/13 05:00:46;;;;;;;8.00;4.05;;;;;;;;;;5038026;28;20025;-67
2022/04/13 05:03:11;;;;;;;6.65;4.15;;;;;;;;;;5046195;28;20041;-66
2022/04/13 05:05:39;;;;;;;6.03;3.88;;;;;;;;;;5033189;28;20363;-67
2022/04/13 05:08:05;;;;;;;6.00;4.18;;;;;;;;;;5039607;28;20478;-65
2022/04/13 05:10:30;;;;;;;7.13;3.85;;;;;;;;;;5057511;28;20125;-66
2022/04/13 05:12:57;;;;;;;6.50;4.32;;;;;;;;;;5057785;28;20035;-66
2022/04/13 05:15:22;;;;;;;7.70;4.38;;;;;;;;;;5041656;28;20025;-67
2022/04/13 05:17:48;;;;;;;5.50;3.90;;;;;;;;;;5059673;28;20033;-67
2022/04/13 05:20:13;;;;;;;11.55;4.60;;;;;;;;;;5050984;28;20045;-67
2022/04/13 05:22:38;;;;;;;7.97;4.13;;;;;;;;;;5052897;28;20025;-67
2022/04/13 05:25:10;;;;;;;7.63;4.35;;;;;;;;;;5053091;28;20025;-67
2022/04/13 05:27:36;;;;;;;8.13;4.05;;;;;;;;;;5051427;28;20071;-63
2022/04/13 05:30:03;;;;;;;8.23;4.40;;;;;;;;;;5040452;28;20017;-62
2022/04/13 05:32:28;;;;;;;7.32;4.28;;;;;;;;;;5046314;28;20024;-63
2022/04/13 05:34:58;;;;;;;8.30;4.75;;;;;;;;;;5036726;28;20025;-62
2022/04/13 05:37:23;;;;;;;9.38;4.65;;;;;;;;;;5040226;28;20025;-62
2022/04/13 05:39:48;;;;;;;8.20;5.07;;;;;;;;;;5053545;28;20025;-63
2022/04/13 05:42:14;;;;;;;5.93;4.10;;;;;;;;;;5052165;28;20036;-62
2022/04/13 05:44:39;;;;;;;6.55;4.15;;;;;;;;;;5051620;28;20018;-63
2022/04/13 05:47:04;;;;;;;6.72;4.38;;;;;;;;;;5034198;28;20100;-62
2022/04/13 05:49:29;;;;;;;8.65;4.63;;;;;;;;;;5032331;28;20376;-63
2022/04/13 05:51:54;;;;;;;7.93;4.63;;;;;;;;;;5049080;28;20043;-63
2022/04/13 05:54:20;;;;;;;9.35;4.40;;;;;;;;;;5051892;28;20397;-63
2022/04/13 05:56:45;;;;;;;9.68;4.65;;;;;;;;;;5053292;28;20025;-63
2022/04/13 05:59:11;;;;;;;7.28;4.40;;;;;;;;;;5034012;28;20125;-64
2022/04/13 06:01:36;;;;;;;9.30;5.22;;;;;;;;;;5030096;28;20037;-64
2022/04/13 06:04:01;;;;;;;9.48;4.65;;;;;;;;;;5053448;28;20497;-62
2022/04/13 06:06:28;;;;;;;8.02;4.38;;;;;;;;;;5050950;28;20489;-63
2022/04/13 06:08:53;;;;;;;9.55;3.92;;;;;;;;;;5051935;28;20433;-63
2022/04/13 06:11:19;;;;;;;8.85;4.18;;;;;;;;;;5054453;28;20066;-63
2022/04/13 06:13:44;;;;;;;7.35;4.07;;;;;;;;;;5065138;28;20412;-63
2022/04/13 06:16:09;;;;;;;8.05;4.47;;;;;;;;;;5038847;28;20045;-63
2022/04/13 06:18:34;;;;;;;10.25;4.60;;;;;;;;;;5045827;28;20044;-63
2022/04/13 06:20:59;;;;;;;8.88;5.43;;;;;;;;;;5050777;28;20477;-63
2022/04/13 06:23:25;;;;;;;10.18;4.63;;;;;;;;;;5053301;28;20024;-64
2022/04/13 06:25:50;;;;;;;9.98;4.95;;;;;;;;;;5051924;28;20147;-64
2022/04/13 06:28:15;;;;;;;7.78;4.05;;;;;;;;;;5046941;28;20021;-64
2022/04/13 06:30:40;;;;;;;8.45;4.05;;;;;;;;;;5052353;28;20040;-64
2022/04/13 06:33:06;;;;;;;7.22;4.38;;;;;;;;;;5047352;28;20512;-64
2022/04/13 06:35:31;;;;;;;9.15;3.92;;;;;;;;;;5052727;28;20437;-62
2022/04/13 06:37:56;;;;;;;8.60;4.43;;;;;;;;;;5035581;28;20470;-63
2022/04/13 06:40:21;;;;;;;7.50;4.53;;;;;;;;;;5043687;28;20177;-63
2022/04/13 06:42:48;;;;;;;8.60;3.50;;;;;;;;;;5052530;28;20385;-62
2022/04/13 06:45:14;;;;;;;6.85;3.65;;;;;;;;;;5052665;28;20021;-62
2022/04/13 06:47:39;;;;;;;7.80;3.95;;;;;;;;;;5052881;28;20009;-63
2022/04/13 06:50:05;;;;;;;10.27;4.40;;;;;;;;;;5050034;28;20039;-62
2022/04/13 06:52:34;;;;;;;5.78;3.20;;;;;;;;;;5046235;28;20029;-62
2022/04/13 06:54:59;;;;;;;6.95;3.38;;;;;;;;;;5050617;28;20090;-62
2022/04/13 06:57:24;;;;;;;7.30;3.63;;;;;;;;;;5048295;28;20037;-62
2022/04/13 06:59:50;;;;;;;6.68;3.00;;;;;;;;;;5035745;28;20436;-62
2022/04/13 07:02:15;;;;;;;5.85;3.40;;;;;;;;;;5049056;28;20045;-63
2022/04/13 07:04:40;;;;;;;4.72;3.22;;;;;;;;;;5046324;28;20195;-63
2022/04/13 07:07:05;;;;;;;5.20;3.75;;;;;;;;;;5045940;28;20078;-63
2022/04/13 07:09:31;;;;;;;5.95;3.45;;;;;;;;;;5052331;28;20036;-63
2022/04/13 07:11:56;;;;;;;8.35;3.83;;;;;;;;;;5051933;28;20025;-63
2022/04/13 07:14:21;;;;;;;5.57;3.20;;;;;;;;;;5051030;28;20036;-63
2022/04/13 07:16:46;;;;;;;6.13;4.32;;;;;;;;;;5036455;28;20047;-62
2022/04/13 07:19:11;;;;;;;6.05;3.58;;;;;;;;;;5030375;28;20038;-64
2022/04/13 07:21:37;;;;;;;7.75;4.05;;;;;;;;;;5039654;28;20021;-62
2022/04/13 07:24:02;;;;;;;9.02;3.38;;;;;;;;;;5051718;28;20017;-62
2022/04/13 07:26:27;;;;;;;7.13;3.58;;;;;;;;;;5049685;28;20449;-62
2022/04/13 07:28:54;;;;;;;5.90;3.67;;;;;;;;;;5039768;28;20434;-65
2022/04/13 07:31:19;;;;;;;8.13;4.15;;;;;;;;;;5044467;28;20029;-63
2022/04/13 07:33:44;;;;;;;7.93;4.25;;;;;;;;;;5033500;28;20025;-64
2022/04/13 07:36:11;;;;;;;6.60;4.07;;;;;;;;;;5042423;28;20029;-62
2022/04/13 07:38:37;;;;;;;4.80;3.75;;;;;;;;;;5037012;28;20025;-65
2022/04/13 07:41:03;;;;;;;8.13;4.07;;;;;;;;;;5037542;28;20079;-67
2022/04/13 07:43:28;;;;;;;6.03;4.20;;;;;;;;;;5058355;28;20470;-66
2022/04/13 07:45:54;;;;;;;5.82;3.42;;;;;;;;;;5046309;28;20107;-65
2022/04/13 07:48:19;;;;;;;4.40;3.10;;;;;;;;;;5051717;28;20533;-66
2022/04/13 07:50:44;;;;;;;6.78;3.72;;;;;;;;;;5050654;28;20264;-71
2022/04/13 07:53:11;;;;;;;5.85;3.85;;;;;;;;;;5049886;28;20024;-77
2022/04/13 07:55:36;;;;;;;5.47;3.65;;;;;;;;;;5049440;28;20436;-66
2022/04/13 07:58:01;;;;;;;6.70;3.08;;;;;;;;;;5039610;28;20029;-65
2022/04/13 08:00:27;;;;;;;6.97;3.70;;;;;;;;;;5038004;28;20148;-71
2022/04/13 08:02:52;;;;;;;5.75;3.90;;;;;;;;;;5049841;28;20049;-69
2022/04/13 08:05:17;;;;;;;7.40;4.25;;;;;;;;;;5028633;28;20033;-70
2022/04/13 08:07:42;;;;;;;8.38;4.05;;;;;;;;;;5045359;28;20075;-65
2022/04/13 08:10:08;;;;;;;6.07;3.40;;;;;;;;;;5047820;28;20082;-65
2022/04/13 08:12:33;;;;;;;7.18;4.22;;;;;;;;;;5051348;28;20075;-64
2022/04/13 08:14:59;;;;;;;6.97;3.45;;;;;;;;;;5049517;28;20418;-68
2022/04/13 08:17:25;;;;;;;7.53;3.83;;;;;;;;;;5037615;28;20108;-61
2022/04/13 08:19:51;;;;;;;7.75;3.83;;;;;;;;;;5045453;28;20474;-62
2022/04/13 08:22:17;;;;;;;7.18;3.80;;;;;;;;;;5054868;28;20028;-62
2022/04/13 08:24:43;;;;;;;5.72;3.47;;;;;;;;;;5054189;28;20017;-63
2022/04/13 08:27:10;;;;;;;6.75;3.58;;;;;;;;;;5046526;28;20116;-65
2022/04/13 08:29:35;;;;;;;5.00;3.35;;;;;;;;;;5036512;28;20027;-66
2022/04/13 08:32:00;;;;;;;5.55;3.28;;;;;;;;;;5044724;28;20017;-63
2022/04/13 08:34:26;;;;;;;5.47;3.60;;;;;;;;;;5053866;28;20374;-63
2022/04/13 08:36:51;;;;;;;5.85;3.50;;;;;;;;;;5047323;28;20048;-64
2022/04/13 08:39:16;;;;;;;4.88;2.75;;;;;;;;;;5054551;28;20111;-64
2022/04/13 08:41:48;;;;;;;5.15;3.08;;;;;;;;;;5054116;28;20509;-62
2022/04/13 08:44:29;;;;;;;4.95;3.20;;;;;;;;;;5040056;28;20151;-63
2022/04/13 08:46:57;;;;;;;4.97;3.42;;;;;;;;;;5035382;28;20110;-63
2022/04/13 08:49:22;;;;;;;4.25;3.05;;;;;;;;;;5045415;28;20041;-63
2022/04/13 08:51:49;;;;;;;5.60;3.15;;;;;;;;;;5053052;28;20087;-63
2022/04/13 08:54:14;;;;;;;5.57;2.80;;;;;;;;;;5055153;28;20051;-63
2022/04/13 08:56:42;;;;;;;6.43;2.97;;;;;;;;;;5053513;28;20465;-64
2022/04/13 08:59:07;;;;;;;4.45;3.13;;;;;;;;;;5034613;28;20033;-62
2022/04/13 09:01:35;;;;;;;3.13;2.73;;;;;;;;;;5046538;28;20370;-62
2022/04/13 09:04:05;;;;;;;2.88;2.40;;;;;;;;;;5035006;28;20279;-63
2022/04/13 09:06:31;;;;;;;5.13;2.88;;;;;;;;;;5045375;28;20009;-63
2022/04/13 09:09:00;;;;;;;3.47;2.25;;;;;;;;;;5036441;28;20536;-64
2022/04/13 09:11:27;;;;;;;5.85;2.25;;;;;;;;;;5036256;28;20080;-64
2022/04/13 09:13:52;;;;;;;4.55;2.75;;;;;;;;;;5037242;28;20037;-63
2022/04/13 09:16:17;;;;;;;3.13;2.15;;;;;;;;;;5038573;28;20028;-64
2022/04/13 09:18:43;;;;;;;3.53;2.67;;;;;;;;;;5043694;28;20484;-62
2022/04/13 09:21:08;;;;;;;3.88;2.35;;;;;;;;;;5049677;28;20390;-63
2022/04/13 09:23:33;;;;;;;4.78;2.67;;;;;;;;;;5049566;28;20052;-64
2022/04/13 09:25:59;;;;;;;4.57;2.33;;;;;;;;;;5043929;28;20029;-64
2022/04/13 09:28:25;;;;;;;3.08;2.15;;;;;;;;;;5037736;28;20381;-64
2022/04/13 09:30:51;;;;;;;5.18;2.20;;;;;;;;;;5039944;28;20029;-63
2022/04/13 09:33:16;;;;;;;3.13;2.28;;;;;;;;;;5053236;28;20086;-63
2022/04/13 09:35:42;;;;;;;3.10;2.25;;;;;;;;;;5037158;28;20030;-63
2022/04/13 09:38:07;;;;;;;2.60;2.00;;;;;;;;;;5052953;28;20036;-62
2022/04/13 09:40:42;;;;;;;2.97;1.85;;;;;;;;;;5051907;28;20286;-63
2022/04/13 09:43:07;;;;;;;2.65;1.92;;;;;;;;;;5053444;28;20059;-62
2022/04/13 09:45:34;;;;;;;2.65;1.80;;;;;;;;;;5046557;28;20127;-62
2022/04/13 09:47:59;;;;;;;1.80;1.60;;;;;;;;;;5049545;28;20032;-63
2022/04/13 09:50:25;;;;;;;3.10;1.67;;;;;;;;;;5033251;28;20018;-63
2022/04/13 09:52:54;;;;;;;2.20;1.63;;;;;;;;;;5046867;28;20276;-63
2022/04/13 09:55:21;;;;;;;2.15;1.80;;;;;;;;;;5033940;28;20083;-63
2022/04/13 09:57:46;;;;;;;3.35;1.90;;;;;;;;;;5045418;28;20023;-64
2022/04/13 10:00:12;;;;;;;1.70;1.45;;;;;;;;;;5040017;28;20115;-64
2022/04/13 10:02:41;;;;;;;2.13;1.52;;;;;;;;;;5044658;28;20132;-64
2022/04/13 10:05:08;;;;;;;3.78;1.98;;;;;;;;;;5048422;28;20029;-64
2022/04/13 10:07:33;;;;;;;3.60;2.03;;;;;;;;;;5052475;28;20116;-64
2022/04/13 10:09:58;;;;;;;3.30;1.92;;;;;;;;;;5053537;28;20061;-64
2022/04/13 10:12:23;;;;;;;4.33;1.77;;;;;;;;;;5053161;28;20552;-63
2022/04/13 10:14:49;;;;;;;4.40;2.30;;;;;;;;;;5041946;28;20636;-64
2022/04/13 10:17:16;;;;;;;1.58;1.48;;;;;;;;;;5053577;28;20632;-63
2022/04/13 10:19:42;;;;;;;3.30;2.10;;;;;;;;;;5052829;28;20486;-63
2022/04/13 10:22:07;;;;;;;2.65;2.10;;;;;;;;;;5051073;28;20085;-62
2022/04/13 10:24:34;;;;;;;3.08;1.70;;;;;;;;;;5033278;28;20111;-64
2022/04/13 10:26:59;;;;;;;2.60;1.55;;;;;;;;;;5052706;28;20025;-65
2022/04/13 10:29:26;;;;;;;3.13;1.52;;;;;;;;;;5045947;28;20044;-63
2022/04/13 10:32:00;;;;;;;2.03;1.60;;;;;;;;;;5050235;28;20024;-64
2022/04/13 10:34:30;;;;;;;2.88;1.15;;;;;;;;;;5050850;28;20393;-64
2022/04/13 10:36:55;;;;;;;3.33;1.25;;;;;;;;;;5039548;28;20037;-63
2022/04/13 10:39:20;;;;;;;5.53;1.40;;;;;;;;;;5053061;28;20116;-64
2022/04/13 10:41:45;;;;;;;2.93;1.40;;;;;;;;;;5051521;28;20028;-64
2022/04/13 10:44:11;;;;;;;3.33;1.52;;;;;;;;;;5042913;28;20276;-63
2022/04/13 10:46:37;;;;;;;4.60;1.35;;;;;;;;;;5043712;28;20100;-64
2022/04/13 10:49:07;;;;;;;3.88;1.20;;;;;;;;;;5051616;28;20017;-64
2022/04/13 10:51:34;;;;;;;1.98;1.00;;;;;;;;;;5047643;28;20020;-63
2022/04/13 10:54:00;;;;;;;4.00;0.90;;;;;;;;;;5051917;28;20057;-63
2022/04/13 10:56:32;;;;;;;1.63;0.77;;;;;;;;;;5037600;28;20027;-64
2022/04/13 10:59:18;;;;;;;2.70;0.95;;;;;;;;;;5033623;28;20057;-64
2022/04/13 11:01:51;;;;;;;1.48;0.90;;;;;;;;;;5030632;28;20060;-64
2022/04/13 11:04:16;;;;;;;1.55;0.57;;;;;;;;;;5042699;28;20032;-64
2022/04/13 11:06:43;;;;;;;1.52;0.75;;;;;;;;;;5045875;28;20028;-63
2022/04/13 11:09:12;;;;;;;1.63;0.60;;;;;;;;;;5032638;28;20084;-65
2022/04/13 11:11:38;;;;;;;2.17;0.82;;;;;;;;;;5032578;28;20056;-64
2022/04/13 11:14:17;;;;;;;2.13;0.80;;;;;;;;;;5041254;28;20048;-64
2022/04/13 11:16:42;;;;;;;1.73;0.60;;;;;;;;;;5032519;28;20033;-65
2022/04/13 11:19:08;;;;;;;1.00;0.83;;;;;;;;;;5031790;28;20030;-64
2022/04/13 11:21:34;;;;;;;3.53;0.70;;;;;;;;;;5031818;28;20017;-68
2022/04/13 11:24:00;;;;;;;1.63;0.60;;;;;;;;;;5022129;28;20465;-70
2022/04/13 11:26:34;;;;;;;1.95;0.93;;;;;;;;;;5046951;28;20024;-69
2022/04/13 11:29:18;;;;;;;1.15;0.90;;;;;;;;;;5031927;28;20083;-70
2022/04/13 11:32:02;;;;;;;1.92;0.75;;;;;;;;;;5049930;28;20025;-68
2022/04/13 11:34:27;;;;;;;2.60;0.80;;;;;;;;;;5048326;28;20164;-69
2022/04/13 11:36:52;;;;;;;2.00;0.70;;;;;;;;;;5040916;28;20124;-68
2022/04/13 11:39:37;;;;;;;0.80;0.60;;;;;;;;;;5048946;28;20045;-70
2022/04/13 11:42:03;;;;;;;2.78;0.77;;;;;;;;;;5051577;28;20470;-69
2022/04/13 11:44:45;;;;;;;3.35;0.73;;;;;;;;;;5049409;28;20029;-71
2022/04/13 11:47:15;;;;;;;2.22;0.70;;;;;;;;;;5042457;28;20413;-69
2022/04/13 11:49:56;;;;;;;2.13;0.77;;;;;;;;;;5051643;28;20017;-70
2022/04/13 11:52:41;;;;;;;1.70;0.80;;;;;;;;;;5049779;28;20036;-68
2022/04/13 11:55:26;;;;;;;2.30;0.90;;;;;;;;;;5050275;28;20052;-70
2022/04/13 11:57:57;;;;;;;1.33;0.60;;;;;;;;;;5044626;28;20505;-69
2022/04/13 12:00:35;;;;;;;1.23;0.70;;;;;;;;;;5049412;28;20112;-70
2022/04/13 12:03:01;;;;;;;3.08;0.80;;;;;;;;;;5048592;28;20517;-70
2022/04/13 12:05:27;;;;;;;1.50;0.80;;;;;;;;;;5047059;28;20025;-68
2022/04/13 12:07:53;;;;;;;0.95;0.57;;;;;;;;;;5041546;28;20048;-70
2022/04/13 12:10:18;;;;;;;3.50;0.70;;;;;;;;;;5051133;28;20111;-70
2022/04/13 12:12:50;;;;;;;1.63;0.70;;;;;;;;;;5050090;28;20385;-70
2022/04/13 12:15:15;;;;;;;1.58;0.50;;;;;;;;;;5051185;28;20028;-70
2022/04/13 12:17:40;;;;;;;1.83;0.67;;;;;;;;;;5051369;28;20033;-69
2022/04/13 12:20:06;;;;;;;1.80;0.40;;;;;;;;;;5050552;28;20035;-69
2022/04/13 12:22:33;;;;;;;2.72;1.77;;;;;;;;;;5035271;28;20847;-71
2022/04/13 12:25:01;;;;;;;2.10;1.23;;;;;;;;;;5030217;28;20501;-71
2022/04/13 12:27:26;;;;;;;1.45;0.47;;;;;;;;;;5041352;28;20021;-70
2022/04/13 12:30:07;;;;;;;0.85;0.40;;;;;;;;;;5042947;28;20371;-70
2022/04/13 12:32:32;;;;;;;1.08;0.35;;;;;;;;;;5035197;28;20022;-71
2022/04/13 12:34:58;;;;;;;0.63;0.30;;;;;;;;;;5031365;28;20091;-71
2022/04/13 12:37:23;;;;;;;0.60;0.40;;;;;;;;;;5046295;28;20304;-71
2022/04/13 12:39:48;;;;;;;1.87;0.30;;;;;;;;;;5046881;28;20033;-70
2022/04/13 12:42:21;;;;;;;2.30;0.40;;;;;;;;;;5049794;28;20029;-70
2022/04/13 12:44:46;;;;;;;2.88;0.32;;;;;;;;;;5049433;28;20036;-69
2022/04/13 12:47:12;;;;;;;3.17;0.40;;;;;;;;;;5050043;28;20017;-71
2022/04/13 12:49:37;;;;;;;1.20;0.50;;;;;;;;;;5029190;28;20272;-71
2022/04/13 12:52:06;;;;;;;1.73;0.40;;;;;;;;;;5048802;28;20081;-70
2022/04/13 12:54:31;;;;;;;2.05;0.40;;;;;;;;;;5050745;28;20025;-70
2022/04/13 12:57:00;;;;;;;0.95;0.43;;;;;;;;;;5050590;28;20036;-70
2022/04/13 12:59:25;;;;;;;0.93;0.50;;;;;;;;;;5030280;28;20501;-70
2022/04/13 13:01:54;;;;;;;1.10;0.50;;;;;;;;;;5032679;28;20037;-69
2022/04/13 13:04:21;;;;;;;1.60;0.50;;;;;;;;;;5050557;28;20499;-70
2022/04/13 13:06:56;;;;;;;1.55;0.40;;;;;;;;;;5053447;28;20196;-70
2022/04/13 13:09:23;;;;;;;2.20;0.50;;;;;;;;;;5054914;28;20021;-71
2022/04/13 13:11:53;;;;;;;1.15;0.35;;;;;;;;;;5052332;28;20112;-70
2022/04/13 13:14:18;;;;;;;0.95;0.35;;;;;;;;;;5054869;28;20029;-70
2022/04/13 13:16:44;;;;;;;1.47;0.40;;;;;;;;;;5050009;28;20029;-70
2022/04/13 13:19:12;;;;;;;2.05;0.40;;;;;;;;;;5051902;28;20035;-71
2022/04/13 13:21:56;;;;;;;1.55;0.32;;;;;;;;;;5051716;28;20021;-70
2022/04/13 13:24:25;;;;;;;0.40;0.30;;;;;;;;;;5052965;28;20040;-70
2022/04/13 13:26:50;;;;;;;1.58;0.40;;;;;;;;;;5052067;28;20044;-69
2022/04/13 13:29:16;;;;;;;1.25;0.55;;;;;;;;;;5045906;28;20127;-70
2022/04/13 13:31:41;;;;;;;1.30;0.40;;;;;;;;;;5045601;28;20037;-71
2022/04/13 13:34:07;;;;;;;1.08;0.50;;;;;;;;;;5052464;28;20033;-71
2022/04/13 13:36:32;;;;;;;1.77;0.40;;;;;;;;;;5053850;28;20116;-71
2022/04/13 13:38:57;;;;;;;3.93;2.87;;;;;;;;;;5051890;28;20024;-71
2022/04/13 13:41:23;;;;;;;2.90;0.60;;;;;;;;;;5053116;28;20041;-71
2022/04/13 13:43:48;;;;;;;2.28;0.50;;;;;;;;;;5036879;28;20025;-70
2022/04/13 13:46:14;;;;;;;3.83;0.60;;;;;;;;;;5050041;28;20377;-70
2022/04/13 13:48:39;;;;;;;1.63;0.38;;;;;;;;;;5052959;28;20256;-69
2022/04/13 13:51:04;;;;;;;1.87;0.60;;;;;;;;;;5051298;28;20374;-71
2022/04/13 13:53:29;;;;;;;1.37;0.50;;;;;;;;;;5053865;28;20028;-71
2022/04/13 13:55:55;;;;;;;1.80;0.60;;;;;;;;;;5051672;28;20056;-70
2022/04/13 13:58:21;;;;;;;2.53;0.60;;;;;;;;;;5043463;28;20493;-71
2022/04/13 14:00:46;;;;;;;1.52;0.60;;;;;;;;;;5052101;28;20040;-70
2022/04/13 14:03:12;;;;;;;1.38;0.30;;;;;;;;;;5051269;28;20045;-71
2022/04/13 14:05:38;;;;;;;1.15;0.50;;;;;;;;;;5052144;28;20096;-71
2022/04/13 14:08:05;;;;;;;2.47;0.50;;;;;;;;;;5052619;28;20053;-69
2022/04/13 14:10:30;;;;;;;1.38;0.30;;;;;;;;;;5052716;28;20380;-69
2022/04/13 14:12:56;;;;;;;0.80;0.47;;;;;;;;;;5052294;28;20021;-70
2022/04/13 14:15:21;;;;;;;0.60;0.40;;;;;;;;;;5051630;28;20028;-71
2022/04/13 14:17:47;;;;;;;1.30;0.40;;;;;;;;;;5051581;28;20031;-70
2022/04/13 14:20:13;;;;;;;1.67;0.50;;;;;;;;;;5052546;28;20369;-71
2022/04/13 14:22:40;;;;;;;2.17;0.35;;;;;;;;;;5045559;28;20121;-70
2022/04/13 14:25:05;;;;;;;1.40;0.40;;;;;;;;;;5033835;28;20045;-71
2022/04/13 14:27:31;;;;;;;1.95;0.50;;;;;;;;;;5048080;28;20469;-68
2022/04/13 14:29:57;;;;;;;2.05;0.40;;;;;;;;;;5043086;28;20108;-68
2022/04/13 14:32:24;;;;;;;2.45;0.60;;;;;;;;;;5051382;28;20021;-69
2022/04/13 14:34:49;;;;;;;2.55;0.50;;;;;;;;;;5053168;28;20367;-69
2022/04/13 14:37:14;;;;;;;0.73;0.37;;;;;;;;;;5040942;28;20167;-68
2022/04/13 14:39:39;;;;;;;2.00;0.30;;;;;;;;;;5052015;28;20477;-69